Nord Imagination — 3FIA8 — position and weather

sailwx.info

Track history (hours):
 
Tides and Currents Weather Stations Pressure Air Temp Water Temp Dewpoint Dewpoint Depression Visibility Wind Speed Wind Dir Waves Ship Positions

Nord Imagination

Last reported at 2016-Aug-26 04:28 UTC. Time now 2016-Aug-26 05:00 UTC.
Position N 48°31' W 122°35'.

Length 179 m; draft 7.2 m.

Type: Ship (hazmat cat B). MMSI: 354828000.

Date/timePositionNaut miles runAvg speedWind from/ knotsBaromVisibWave heightAir tempDewpointWater temp
2016-Aug-26 04:28N 48°31' W 122°35'0 0.0
2016-Aug-26 03:28N 48°31' W 122°35'0 0.0
2016-Aug-26 02:28N 48°31' W 122°35'0 0.0
2016-Aug-26 01:28N 48°31' W 122°35'0 0.0
2016-Aug-26 00:28N 48°31' W 122°35'0 0.0
2016-Aug-25 23:28N 48°31' W 122°35'0 0.0
2016-Aug-25 22:28N 48°31' W 122°35'0 0.0
2016-Aug-25 21:28N 48°31' W 122°35'0 0.0
2016-Aug-25 20:28N 48°31' W 122°35'0 0.0
2016-Aug-25 19:28N 48°31' W 122°35'0 0.0
2016-Aug-25 18:28N 48°31' W 122°35'0 0.0
2016-Aug-25 17:28N 48°31' W 122°35'0 0.0
2016-Aug-25 16:28N 48°31' W 122°35'0 0.0
2016-Aug-25 15:28N 48°31' W 122°35'0 0.0
2016-Aug-25 14:28N 48°31' W 122°35'0 0.0
2016-Aug-25 13:28N 48°31' W 122°35'0 0.0
2016-Aug-25 12:28N 48°31' W 122°35'2 2.0
2016-Aug-25 11:33N 48°31' W 122°37'8 8.1
2016-Aug-25 10:33N 48°26' W 122°46'1111.4
2016-Aug-25 09:33N 48°19' W 122°59'1211.8
2016-Aug-25 08:33N 48°12' W 123°14'9 9.1
2016-Aug-25 07:33N 48°08' W 123°26'0 0.2
2016-Aug-25 06:31N 48°08' W 123°26'0 0.0
2016-Aug-25 04:31N 48°08' W 123°26'0 0.0
2016-Aug-25 03:28N 48°08' W 123°26'0 0.1
2016-Aug-25 02:31N 48°08' W 123°26'0 0.1
2016-Aug-25 01:28N 48°08' W 123°26'0 0.0
2016-Aug-25 00:31N 48°08' W 123°26'0 0.0
2016-Aug-24 23:31N 48°08' W 123°26'0 0.0
2016-Aug-24 22:31N 48°08' W 123°26'0 0.0
2016-Aug-24 21:31N 48°08' W 123°26'0 0.0
2016-Aug-24 20:31N 48°08' W 123°26'0 0.0
2016-Aug-24 19:28N 48°08' W 123°26'0 0.0
2016-Aug-24 18:31N 48°08' W 123°26'0 0.0
2016-Aug-24 17:25N 48°08' W 123°26'0 0.2
2016-Aug-24 16:31N 48°08' W 123°26'0 0.0
2016-Aug-24 15:31N 48°08' W 123°26'0 0.0
2016-Aug-24 14:25N 48°08' W 123°26'0 0.1
2016-Aug-24 13:28N 48°08' W 123°26'0 0.1
2016-Aug-24 12:31N 48°08' W 123°26'0 0.1
2016-Aug-24 11:28N 48°08' W 123°26'0 0.1
2016-Aug-24 10:32N 48°08' W 123°26'0 0.1
2016-Aug-24 09:31N 48°08' W 123°26'0 0.0
2016-Aug-24 08:31N 48°08' W 123°26'0 0.0
2016-Aug-24 07:31N 48°08' W 123°26'0 0.0
2016-Aug-24 06:31N 48°08' W 123°26'0 0.0
2016-Aug-24 04:31N 48°08' W 123°26'0 0.0
2016-Aug-24 03:31N 48°08' W 123°26'0 0.0
2016-Aug-24 02:31N 48°08' W 123°26'0 0.0
2016-Aug-24 01:25N 48°08' W 123°26'0 0.1
2016-Aug-24 00:31N 48°08' W 123°26'0 0.0
2016-Aug-23 23:22N 48°08' W 123°26'0 0.1
2016-Aug-23 22:25N 48°08' W 123°26'0 0.0
2016-Aug-23 21:25N 48°08' W 123°26'0 0.0
2016-Aug-23 20:31N 48°08' W 123°26'0 0.0
2016-Aug-23 19:31N 48°08' W 123°26'0 0.0
2016-Aug-23 18:25N 48°08' W 123°26'0 0.1
2016-Aug-23 17:05N 48°08' W 123°26'0 0.1
2016-Aug-23 16:31N 48°08' W 123°26'0 0.1
2016-Aug-23 15:31N 48°08' W 123°26'0 0.0
2016-Aug-23 14:28N 48°08' W 123°26'0 0.0
2016-Aug-23 13:31N 48°08' W 123°26'0 0.1
2016-Aug-23 12:31N 48°08' W 123°26'0 0.0
2016-Aug-23 11:31N 48°08' W 123°26'0 0.1
2016-Aug-23 10:31N 48°08' W 123°26'0 0.0
2016-Aug-23 09:31N 48°08' W 123°26'0 0.0
2016-Aug-23 08:31N 48°08' W 123°26'0 0.1
2016-Aug-23 07:25N 48°08' W 123°26'0 0.0
2016-Aug-23 06:31N 48°08' W 123°26'0 0.0
2016-Aug-23 05:31N 48°08' W 123°26'0 0.0
2016-Aug-23 04:31N 48°08' W 123°26'0 0.0
2016-Aug-23 03:31N 48°08' W 123°26'0 0.0
2016-Aug-23 02:34N 48°08' W 123°26'3 2.8
2016-Aug-23 01:33N 48°09' W 123°22'7 7.4
2016-Aug-23 00:33N 48°13' W 123°31'8 8.0
2016-Aug-22 23:33N 48°13' W 123°43'1313.1
2016-Aug-22 22:33N 48°16' W 124°02'1313.0
2016-Aug-22 21:34N 48°21' W 124°20'1212.3
2016-Aug-22 20:34N 48°26' W 124°37'1211.6
2016-Aug-22 19:34N 48°29' W 124°54'1111.1
2016-Aug-22 18:33N 48°21' W 125°06'1312.9
2016-Aug-22 17:32N 48°11' W 125°19'1111.4
2016-Aug-22 16:33N 48°04' W 125°33'6 5.6
2016-Aug-22 15:30N 48°01' W 125°40'30710.9
2016-Aug-21 11:27N 43°34' W 129°17'3512.0
2016-Aug-21 08:31N 42°59' W 129°19'1511.9
2016-Aug-21 07:16N 42°44' W 129°20'1111.9
2016-Aug-21 06:23N 42°34' W 129°19'1011.7
2016-Aug-21 05:34N 42°24' W 129°18'1211.9
2016-Aug-21 04:34N 42°12' W 129°16'1111.2
2016-Aug-21 03:34N 42°01' W 129°15'1111.0
2016-Aug-21 02:33N 41°50' W 129°13'1211.6
2016-Aug-21 01:34N 41°39' W 129°11'1111.3
2016-Aug-21 00:33N 41°27' W 129°10'1110.7
2016-Aug-20 23:33N 41°17' W 129°09'1111.0
2016-Aug-20 22:33N 41°06' W 129°07'1111.3
2016-Aug-20 21:33N 40°55' W 129°06'1110.7
2016-Aug-20 20:34N 40°44' W 129°04'1110.9
2016-Aug-20 19:33N 40°33' W 129°03'1111.2
2016-Aug-20 18:33N 40°22' W 129°01'1111.4
2016-Aug-20 17:33N 40°11' W 128°59'1211.6
2016-Aug-20 16:32N 39°59' W 128°58'1111.3
2016-Aug-20 15:34N 39°48' W 128°56'1110.8
2016-Aug-20 14:33N 39°37' W 128°55'1010.2
2016-Aug-20 13:33N 39°27' W 128°54'1010.0
2016-Aug-20 12:34N 39°17' W 128°52'1110.1
2016-Aug-20 11:31N 39°07' W 128°51'5310.6
2016-Aug-20 06:31N 38°17' W 128°25'2110.8
2016-Aug-20 04:33N 37°58' W 128°14'10411.3
2016-Aug-19 19:19N 36°23' W 127°19'16611.2
2016-Aug-19 04:32N 33°52' W 125°55'1110.8
2016-Aug-19 03:32N 33°43' W 125°49'1010.7
2016-Aug-19 02:33N 33°33' W 125°44'1110.5
2016-Aug-19 01:28N 33°23' W 125°39'1010.1
2016-Aug-19 00:27N 33°13' W 125°33'910.1
2016-Aug-18 23:34N 33°05' W 125°29'1010.0
2016-Aug-18 22:33N 32°56' W 125°23'11 9.9
2016-Aug-18 21:25N 32°46' W 125°18'13411.0
2016-Aug-18 09:20N 30°45' W 124°13'1312.0
2016-Aug-18 08:14N 30°33' W 124°06'812.0
2016-Aug-18 07:33N 30°25' W 124°02'1212.0
2016-Aug-18 06:33N 30°14' W 123°57'1312.1
2016-Aug-18 05:30N 30°03' W 123°51'1212.2
2016-Aug-18 04:33N 29°52' W 123°45'1312.1
2016-Aug-18 03:30N 29°40' W 123°39'1211.9
2016-Aug-18 02:31N 29°30' W 123°34'1211.8
2016-Aug-18 01:29N 29°19' W 123°27'1111.8
2016-Aug-18 00:33N 29°09' W 123°22'1211.8
2016-Aug-17 23:33N 28°58' W 123°17'1212.0
2016-Aug-17 22:34N 28°47' W 123°11'1211.9
2016-Aug-17 21:34N 28°36' W 123°05'1212.0
2016-Aug-17 20:33N 28°25' W 122°60'1212.1
2016-Aug-17 19:34N 28°14' W 122°54'1412.1
2016-Aug-17 18:25N 28°02' W 122°47'1112.2
2016-Aug-17 17:33N 27°52' W 122°42'1412.2
2016-Aug-17 16:27N 27°40' W 122°36'1112.3
2016-Aug-17 15:34N 27°30' W 122°31'1312.2
2016-Aug-17 14:29N 27°18' W 122°25'1112.2
2016-Aug-17 13:33N 27°08' W 122°19'1212.2
2016-Aug-17 12:34N 26°57' W 122°14'1212.1
2016-Aug-17 11:34N 26°46' W 122°08'1212.1
2016-Aug-17 10:34N 26°35' W 122°03'1212.2
2016-Aug-17 09:33N 26°24' W 121°56'1212.3
2016-Aug-17 08:33N 26°14' W 121°48'1212.2
2016-Aug-17 07:34N 26°04' W 121°40'1212.5
2016-Aug-17 06:34N 25°54' W 121°32'1312.5
2016-Aug-17 05:30N 25°43' W 121°24'1212.5
2016-Aug-17 04:34N 25°33' W 121°17'1312.5
2016-Aug-17 03:33N 25°23' W 121°09'1212.3
2016-Aug-17 02:33N 25°12' W 121°01'1212.2
2016-Aug-17 01:33N 25°02' W 120°54'1212.1
2016-Aug-17 00:33N 24°52' W 120°46'1612.2
2016-Aug-16 23:16N 24°39' W 120°36'  
Track history (hours):
 
Tides and Currents Weather Stations Pressure Air Temp Water Temp Dewpoint Dewpoint Depression Visibility Wind Speed Wind Dir Waves Ship Positions

Nord Imagination

Last reported at 2016-Aug-26 04:28 UTC. Time now 2016-Aug-26 05:00 UTC.
Position N 48°31' W 122°35'.

Length 179 m; draft 7.2 m.

Type: Ship (hazmat cat B). MMSI: 354828000.

Date/timePositionNaut miles runAvg speedWind from/ knotsBaromVisibWave heightAir tempDewpointWater temp
2016-Aug-26 04:28N 48°31' W 122°35'0 0.0
2016-Aug-26 03:28N 48°31' W 122°35'0 0.0
2016-Aug-26 02:28N 48°31' W 122°35'0 0.0
2016-Aug-26 01:28N 48°31' W 122°35'0 0.0
2016-Aug-26 00:28N 48°31' W 122°35'0 0.0
2016-Aug-25 23:28N 48°31' W 122°35'0 0.0
2016-Aug-25 22:28N 48°31' W 122°35'0 0.0
2016-Aug-25 21:28N 48°31' W 122°35'0 0.0
2016-Aug-25 20:28N 48°31' W 122°35'0 0.0
2016-Aug-25 19:28N 48°31' W 122°35'0 0.0
2016-Aug-25 18:28N 48°31' W 122°35'0 0.0
2016-Aug-25 17:28N 48°31' W 122°35'0 0.0
2016-Aug-25 16:28N 48°31' W 122°35'0 0.0
2016-Aug-25 15:28N 48°31' W 122°35'0 0.0
2016-Aug-25 14:28N 48°31' W 122°35'0 0.0
2016-Aug-25 13:28N 48°31' W 122°35'0 0.0
2016-Aug-25 12:28N 48°31' W 122°35'2 2.0
2016-Aug-25 11:33N 48°31' W 122°37'8 8.1
2016-Aug-25 10:33N 48°26' W 122°46'1111.4
2016-Aug-25 09:33N 48°19' W 122°59'1211.8
2016-Aug-25 08:33N 48°12' W 123°14'9 9.1
2016-Aug-25 07:33N 48°08' W 123°26'0 0.2
2016-Aug-25 06:31N 48°08' W 123°26'0 0.0
2016-Aug-25 04:31N 48°08' W 123°26'0 0.0
2016-Aug-25 03:28N 48°08' W 123°26'0 0.1
2016-Aug-25 02:31N 48°08' W 123°26'0 0.1
2016-Aug-25 01:28N 48°08' W 123°26'0 0.0
2016-Aug-25 00:31N 48°08' W 123°26'0 0.0
2016-Aug-24 23:31N 48°08' W 123°26'0 0.0
2016-Aug-24 22:31N 48°08' W 123°26'0 0.0
2016-Aug-24 21:31N 48°08' W 123°26'0 0.0
2016-Aug-24 20:31N 48°08' W 123°26'0 0.0
2016-Aug-24 19:28N 48°08' W 123°26'0 0.0
2016-Aug-24 18:31N 48°08' W 123°26'0 0.0
2016-Aug-24 17:25N 48°08' W 123°26'0 0.2
2016-Aug-24 16:31N 48°08' W 123°26'0 0.0
2016-Aug-24 15:31N 48°08' W 123°26'0 0.0
2016-Aug-24 14:25N 48°08' W 123°26'0 0.1
2016-Aug-24 13:28N 48°08' W 123°26'0 0.1
2016-Aug-24 12:31N 48°08' W 123°26'0 0.1
2016-Aug-24 11:28N 48°08' W 123°26'0 0.1
2016-Aug-24 10:32N 48°08' W 123°26'0 0.1
2016-Aug-24 09:31N 48°08' W 123°26'0 0.0
2016-Aug-24 08:31N 48°08' W 123°26'0 0.0
2016-Aug-24 07:31N 48°08' W 123°26'0 0.0
2016-Aug-24 06:31N 48°08' W 123°26'0 0.0
2016-Aug-24 04:31N 48°08' W 123°26'0 0.0
2016-Aug-24 03:31N 48°08' W 123°26'0 0.0
2016-Aug-24 02:31N 48°08' W 123°26'0 0.0
2016-Aug-24 01:25N 48°08' W 123°26'0 0.1
2016-Aug-24 00:31N 48°08' W 123°26'0 0.0
2016-Aug-23 23:22N 48°08' W 123°26'0 0.1
2016-Aug-23 22:25N 48°08' W 123°26'0 0.0
2016-Aug-23 21:25N 48°08' W 123°26'0 0.0
2016-Aug-23 20:31N 48°08' W 123°26'0 0.0
2016-Aug-23 19:31N 48°08' W 123°26'0 0.0
2016-Aug-23 18:25N 48°08' W 123°26'0 0.1
2016-Aug-23 17:05N 48°08' W 123°26'0 0.1
2016-Aug-23 16:31N 48°08' W 123°26'0 0.1
2016-Aug-23 15:31N 48°08' W 123°26'0 0.0
2016-Aug-23 14:28N 48°08' W 123°26'0 0.0
2016-Aug-23 13:31N 48°08' W 123°26'0 0.1
2016-Aug-23 12:31N 48°08' W 123°26'0 0.0
2016-Aug-23 11:31N 48°08' W 123°26'0 0.1
2016-Aug-23 10:31N 48°08' W 123°26'0 0.0
2016-Aug-23 09:31N 48°08' W 123°26'0 0.0
2016-Aug-23 08:31N 48°08' W 123°26'0 0.1
2016-Aug-23 07:25N 48°08' W 123°26'0 0.0
2016-Aug-23 06:31N 48°08' W 123°26'0 0.0
2016-Aug-23 05:31N 48°08' W 123°26'0 0.0
2016-Aug-23 04:31N 48°08' W 123°26'0 0.0
2016-Aug-23 03:31N 48°08' W 123°26'0 0.0
2016-Aug-23 02:34N 48°08' W 123°26'3 2.8
2016-Aug-23 01:33N 48°09' W 123°22'7 7.4
2016-Aug-23 00:33N 48°13' W 123°31'8 8.0
2016-Aug-22 23:33N 48°13' W 123°43'1313.1
2016-Aug-22 22:33N 48°16' W 124°02'1313.0
2016-Aug-22 21:34N 48°21' W 124°20'1212.3
2016-Aug-22 20:34N 48°26' W 124°37'1211.6
2016-Aug-22 19:34N 48°29' W 124°54'1111.1
2016-Aug-22 18:33N 48°21' W 125°06'1312.9
2016-Aug-22 17:32N 48°11' W 125°19'1111.4
2016-Aug-22 16:33N 48°04' W 125°33'6 5.6
2016-Aug-22 15:30N 48°01' W 125°40'30710.9
2016-Aug-21 11:27N 43°34' W 129°17'3512.0
2016-Aug-21 08:31N 42°59' W 129°19'1511.9
2016-Aug-21 07:16N 42°44' W 129°20'1111.9
2016-Aug-21 06:23N 42°34' W 129°19'1011.7
2016-Aug-21 05:34N 42°24' W 129°18'1211.9
2016-Aug-21 04:34N 42°12' W 129°16'1111.2
2016-Aug-21 03:34N 42°01' W 129°15'1111.0
2016-Aug-21 02:33N 41°50' W 129°13'1211.6
2016-Aug-21 01:34N 41°39' W 129°11'1111.3
2016-Aug-21 00:33N 41°27' W 129°10'1110.7
2016-Aug-20 23:33N 41°17' W 129°09'1111.0
2016-Aug-20 22:33N 41°06' W 129°07'1111.3
2016-Aug-20 21:33N 40°55' W 129°06'1110.7
2016-Aug-20 20:34N 40°44' W 129°04'1110.9
2016-Aug-20 19:33N 40°33' W 129°03'1111.2
2016-Aug-20 18:33N 40°22' W 129°01'1111.4
2016-Aug-20 17:33N 40°11' W 128°59'1211.6
2016-Aug-20 16:32N 39°59' W 128°58'1111.3
2016-Aug-20 15:34N 39°48' W 128°56'1110.8
2016-Aug-20 14:33N 39°37' W 128°55'1010.2
2016-Aug-20 13:33N 39°27' W 128°54'1010.0
2016-Aug-20 12:34N 39°17' W 128°52'1110.1
2016-Aug-20 11:31N 39°07' W 128°51'5310.6
2016-Aug-20 06:31N 38°17' W 128°25'2110.8
2016-Aug-20 04:33N 37°58' W 128°14'10411.3
2016-Aug-19 19:19N 36°23' W 127°19'16611.2
2016-Aug-19 04:32N 33°52' W 125°55'1110.8
2016-Aug-19 03:32N 33°43' W 125°49'1010.7
2016-Aug-19 02:33N 33°33' W 125°44'1110.5
2016-Aug-19 01:28N 33°23' W 125°39'1010.1
2016-Aug-19 00:27N 33°13' W 125°33'910.1
2016-Aug-18 23:34N 33°05' W 125°29'1010.0
2016-Aug-18 22:33N 32°56' W 125°23'11 9.9
2016-Aug-18 21:25N 32°46' W 125°18'13411.0
2016-Aug-18 09:20N 30°45' W 124°13'1312.0
2016-Aug-18 08:14N 30°33' W 124°06'812.0
2016-Aug-18 07:33N 30°25' W 124°02'1212.0
2016-Aug-18 06:33N 30°14' W 123°57'1312.1
2016-Aug-18 05:30N 30°03' W 123°51'1212.2
2016-Aug-18 04:33N 29°52' W 123°45'1312.1
2016-Aug-18 03:30N 29°40' W 123°39'1211.9
2016-Aug-18 02:31N 29°30' W 123°34'1211.8
2016-Aug-18 01:29N 29°19' W 123°27'1111.8
2016-Aug-18 00:33N 29°09' W 123°22'1211.8
2016-Aug-17 23:33N 28°58' W 123°17'1212.0
2016-Aug-17 22:34N 28°47' W 123°11'1211.9
2016-Aug-17 21:34N 28°36' W 123°05'1212.0
2016-Aug-17 20:33N 28°25' W 122°60'1212.1
2016-Aug-17 19:34N 28°14' W 122°54'1412.1
2016-Aug-17 18:25N 28°02' W 122°47'1112.2
2016-Aug-17 17:33N 27°52' W 122°42'1412.2
2016-Aug-17 16:27N 27°40' W 122°36'1112.3
2016-Aug-17 15:34N 27°30' W 122°31'1312.2
2016-Aug-17 14:29N 27°18' W 122°25'1112.2
2016-Aug-17 13:33N 27°08' W 122°19'1212.2
2016-Aug-17 12:34N 26°57' W 122°14'1212.1
2016-Aug-17 11:34N 26°46' W 122°08'1212.1
2016-Aug-17 10:34N 26°35' W 122°03'1212.2
2016-Aug-17 09:33N 26°24' W 121°56'1212.3
2016-Aug-17 08:33N 26°14' W 121°48'1212.2
2016-Aug-17 07:34N 26°04' W 121°40'1212.5
2016-Aug-17 06:34N 25°54' W 121°32'1312.5
2016-Aug-17 05:30N 25°43' W 121°24'1212.5
2016-Aug-17 04:34N 25°33' W 121°17'1312.5
2016-Aug-17 03:33N 25°23' W 121°09'1212.3
2016-Aug-17 02:33N 25°12' W 121°01'1212.2
2016-Aug-17 01:33N 25°02' W 120°54'1212.1
2016-Aug-17 00:33N 24°52' W 120°46'1612.2
2016-Aug-16 23:16N 24°39' W 120°36'  

Dump ship's entire track history